sensor_id;sensor_type;location;lat;lon;timestamp;temperature;humidity
20174;DHT22;10246;50.620;7.232;2022-11-25T00:00:52;8.30;12.00
20174;DHT22;10246;50.620;7.232;2022-11-25T00:03:19;8.40;12.00
20174;DHT22;10246;50.620;7.232;2022-11-25T00:05:47;8.50;12.10
20174;DHT22;10246;50.620;7.232;2022-11-25T00:08:14;8.50;12.10
20174;DHT22;10246;50.620;7.232;2022-11-25T00:10:41;8.60;12.20
20174;DHT22;10246;50.620;7.232;2022-11-25T00:13:09;8.60;12.20
20174;DHT22;10246;50.620;7.232;2022-11-25T00:15:36;8.60;12.20
20174;DHT22;10246;50.620;7.232;2022-11-25T00:18:03;8.60;12.20
20174;DHT22;10246;50.620;7.232;2022-11-25T00:20:30;8.60;12.20
20174;DHT22;10246;50.620;7.232;2022-11-25T00:22:56;8.60;12.20
20174;DHT22;10246;50.620;7.232;2022-11-25T00:25:23;8.70;12.30
20174;DHT22;10246;50.620;7.232;2022-11-25T00:27:51;8.60;12.20
20174;DHT22;10246;50.620;7.232;2022-11-25T00:30:19;8.60;12.20
20174;DHT22;10246;50.620;7.232;2022-11-25T00:32:46;8.60;12.50
20174;DHT22;10246;50.620;7.232;2022-11-25T00:35:13;8.60;12.50
20174;DHT22;10246;50.620;7.232;2022-11-25T00:37:39;8.70;12.90
20174;DHT22;10246;50.620;7.232;2022-11-25T00:40:07;8.70;12.90
20174;DHT22;10246;50.620;7.232;2022-11-25T00:42:34;8.80;12.80
20174;DHT22;10246;50.620;7.232;2022-11-25T00:45:19;8.80;12.70
20174;DHT22;10246;50.620;7.232;2022-11-25T00:47:46;8.80;12.90
20174;DHT22;10246;50.620;7.232;2022-11-25T00:50:13;8.90;12.30
20174;DHT22;10246;50.620;7.232;2022-11-25T00:52:40;8.90;12.30
20174;DHT22;10246;50.620;7.232;2022-11-25T00:55:07;9.00;12.40
20174;DHT22;10246;50.620;7.232;2022-11-25T00:57:34;9.00;12.40
20174;DHT22;10246;50.620;7.232;2022-11-25T01:00:01;9.00;12.40
20174;DHT22;10246;50.620;7.232;2022-11-25T01:02:29;9.10;12.40
20174;DHT22;10246;50.620;7.232;2022-11-25T01:04:56;9.10;11.90
20174;DHT22;10246;50.620;7.232;2022-11-25T01:07:22;9.10;12.10
20174;DHT22;10246;50.620;7.232;2022-11-25T01:09:49;9.10;11.70
20174;DHT22;10246;50.620;7.232;2022-11-25T01:12:16;9.10;11.50
20174;DHT22;10246;50.620;7.232;2022-11-25T01:14:42;9.10;11.70
20174;DHT22;10246;50.620;7.232;2022-11-25T01:17:09;9.10;11.70
20174;DHT22;10246;50.620;7.232;2022-11-25T01:19:37;9.10;11.70
20174;DHT22;10246;50.620;7.232;2022-11-25T01:22:05;9.10;11.70
20174;DHT22;10246;50.620;7.232;2022-11-25T01:24:32;9.10;11.70
20174;DHT22;10246;50.620;7.232;2022-11-25T01:26:58;9.10;11.70
20174;DHT22;10246;50.620;7.232;2022-11-25T01:29:25;9.20;11.30
20174;DHT22;10246;50.620;7.232;2022-11-25T01:31:53;9.20;11.30
20174;DHT22;10246;50.620;7.232;2022-11-25T01:34:22;9.20;11.30
20174;DHT22;10246;50.620;7.232;2022-11-25T01:36:50;9.20;11.20
20174;DHT22;10246;50.620;7.232;2022-11-25T01:39:19;9.20;11.20
20174;DHT22;10246;50.620;7.232;2022-11-25T01:41:47;9.20;11.50
20174;DHT22;10246;50.620;7.232;2022-11-25T01:44:15;9.20;11.50
20174;DHT22;10246;50.620;7.232;2022-11-25T01:46:52;9.20;11.50
20174;DHT22;10246;50.620;7.232;2022-11-25T01:49:25;9.30;11.30
20174;DHT22;10246;50.620;7.232;2022-11-25T01:51:59;9.30;11.30
20174;DHT22;10246;50.620;7.232;2022-11-25T01:54:29;9.30;11.20
20174;DHT22;10246;50.620;7.232;2022-11-25T01:57:00;9.30;10.90
20174;DHT22;10246;50.620;7.232;2022-11-25T01:59:29;9.30;10.90
20174;DHT22;10246;50.620;7.232;2022-11-25T02:01:57;9.30;10.80
20174;DHT22;10246;50.620;7.232;2022-11-25T02:04:29;9.30;11.00
20174;DHT22;10246;50.620;7.232;2022-11-25T02:07:02;9.30;11.00
20174;DHT22;10246;50.620;7.232;2022-11-25T02:09:30;9.30;11.00
20174;DHT22;10246;50.620;7.232;2022-11-25T02:11:58;9.30;11.10
20174;DHT22;10246;50.620;7.232;2022-11-25T02:14:26;9.30;11.00
20174;DHT22;10246;50.620;7.232;2022-11-25T02:16:53;9.30;10.90
20174;DHT22;10246;50.620;7.232;2022-11-25T02:19:23;9.40;10.90
20174;DHT22;10246;50.620;7.232;2022-11-25T02:21:54;9.40;10.60
20174;DHT22;10246;50.620;7.232;2022-11-25T02:24:29;9.40;10.50
20174;DHT22;10246;50.620;7.232;2022-11-25T02:26:59;9.40;10.50
20174;DHT22;10246;50.620;7.232;2022-11-25T02:29:26;9.50;10.20
20174;DHT22;10246;50.620;7.232;2022-11-25T02:31:53;9.50;10.20
20174;DHT22;10246;50.620;7.232;2022-11-25T02:34:20;9.50;10.10
20174;DHT22;10246;50.620;7.232;2022-11-25T02:36:47;9.50;10.00
20174;DHT22;10246;50.620;7.232;2022-11-25T02:39:15;9.50;10.10
20174;DHT22;10246;50.620;7.232;2022-11-25T02:41:45;9.50;9.80
20174;DHT22;10246;50.620;7.232;2022-11-25T02:44:14;9.60;9.20
20174;DHT22;10246;50.620;7.232;2022-11-25T02:46:41;9.60;9.00
20174;DHT22;10246;50.620;7.232;2022-11-25T02:49:08;9.60;9.00
20174;DHT22;10246;50.620;7.232;2022-11-25T02:51:35;9.60;8.90
20174;DHT22;10246;50.620;7.232;2022-11-25T02:54:02;9.60;8.50
20174;DHT22;10246;50.620;7.232;2022-11-25T02:56:30;9.60;8.60
20174;DHT22;10246;50.620;7.232;2022-11-25T02:58:58;9.60;8.70
20174;DHT22;10246;50.620;7.232;2022-11-25T03:01:27;9.60;8.80
20174;DHT22;10246;50.620;7.232;2022-11-25T03:03:55;9.50;8.70
20174;DHT22;10246;50.620;7.232;2022-11-25T03:06:22;9.50;8.50
20174;DHT22;10246;50.620;7.232;2022-11-25T03:08:49;9.40;8.30
20174;DHT22;10246;50.620;7.232;2022-11-25T03:11:15;9.40;8.40
20174;DHT22;10246;50.620;7.232;2022-11-25T03:13:42;9.30;8.40
20174;DHT22;10246;50.620;7.232;2022-11-25T03:16:09;9.10;8.60
20174;DHT22;10246;50.620;7.232;2022-11-25T03:18:37;9.00;9.00
20174;DHT22;10246;50.620;7.232;2022-11-25T03:21:04;8.90;9.60
20174;DHT22;10246;50.620;7.232;2022-11-25T03:23:31;8.90;10.00
20174;DHT22;10246;50.620;7.232;2022-11-25T03:25:58;9.00;10.00
20174;DHT22;10246;50.620;7.232;2022-11-25T03:28:25;9.00;10.10
20174;DHT22;10246;50.620;7.232;2022-11-25T03:30:51;9.00;9.80
20174;DHT22;10246;50.620;7.232;2022-11-25T03:33:18;9.00;9.60
20174;DHT22;10246;50.620;7.232;2022-11-25T03:35:47;9.00;9.60
20174;DHT22;10246;50.620;7.232;2022-11-25T03:38:14;8.90;9.70
20174;DHT22;10246;50.620;7.232;2022-11-25T03:40:40;8.80;9.80
20174;DHT22;10246;50.620;7.232;2022-11-25T03:43:07;8.80;10.10
20174;DHT22;10246;50.620;7.232;2022-11-25T03:45:34;8.80;10.10
20174;DHT22;10246;50.620;7.232;2022-11-25T03:48:00;8.70;10.30
20174;DHT22;10246;50.620;7.232;2022-11-25T03:50:27;8.70;10.50
20174;DHT22;10246;50.620;7.232;2022-11-25T03:52:55;8.80;10.70
20174;DHT22;10246;50.620;7.232;2022-11-25T03:55:22;8.70;10.60
20174;DHT22;10246;50.620;7.232;2022-11-25T03:57:49;8.70;10.50
20174;DHT22;10246;50.620;7.232;2022-11-25T04:00:16;8.70;10.90
20174;DHT22;10246;50.620;7.232;2022-11-25T04:02:43;8.70;11.10
20174;DHT22;10246;50.620;7.232;2022-11-25T04:05:11;8.70;10.90
20174;DHT22;10246;50.620;7.232;2022-11-25T04:07:37;8.70;11.10
20174;DHT22;10246;50.620;7.232;2022-11-25T04:10:07;8.70;10.90
20174;DHT22;10246;50.620;7.232;2022-11-25T04:12:34;8.70;10.70
20174;DHT22;10246;50.620;7.232;2022-11-25T04:15:12;8.80;10.50
20174;DHT22;10246;50.620;7.232;2022-11-25T04:17:39;8.80;10.40
20174;DHT22;10246;50.620;7.232;2022-11-25T04:20:07;8.80;10.30
20174;DHT22;10246;50.620;7.232;2022-11-25T04:22:34;8.70;10.20
20174;DHT22;10246;50.620;7.232;2022-11-25T04:25:01;8.80;10.40
20174;DHT22;10246;50.620;7.232;2022-11-25T04:27:30;8.80;10.40
20174;DHT22;10246;50.620;7.232;2022-11-25T04:29:56;8.80;10.00
20174;DHT22;10246;50.620;7.232;2022-11-25T04:32:23;8.80;9.90
20174;DHT22;10246;50.620;7.232;2022-11-25T04:34:50;8.90;9.80
20174;DHT22;10246;50.620;7.232;2022-11-25T04:37:18;8.90;9.50
20174;DHT22;10246;50.620;7.232;2022-11-25T04:39:44;8.90;9.60
20174;DHT22;10246;50.620;7.232;2022-11-25T04:42:11;8.90;9.80
20174;DHT22;10246;50.620;7.232;2022-11-25T04:44:57;9.00;9.60
20174;DHT22;10246;50.620;7.232;2022-11-25T04:47:23;8.90;9.70
20174;DHT22;10246;50.620;7.232;2022-11-25T04:49:50;9.00;9.50
20174;DHT22;10246;50.620;7.232;2022-11-25T04:52:17;9.00;9.40
20174;DHT22;10246;50.620;7.232;2022-11-25T04:54:43;9.00;9.30
20174;DHT22;10246;50.620;7.232;2022-11-25T04:57:12;9.10;9.30
20174;DHT22;10246;50.620;7.232;2022-11-25T04:59:39;9.00;9.20
20174;DHT22;10246;50.620;7.232;2022-11-25T05:02:08;9.00;9.40
20174;DHT22;10246;50.620;7.232;2022-11-25T05:04:37;9.00;9.30
20174;DHT22;10246;50.620;7.232;2022-11-25T05:07:05;9.00;9.60
20174;DHT22;10246;50.620;7.232;2022-11-25T05:09:32;9.10;9.30
20174;DHT22;10246;50.620;7.232;2022-11-25T05:11:58;9.10;9.00
20174;DHT22;10246;50.620;7.232;2022-11-25T05:14:25;9.10;9.00
20174;DHT22;10246;50.620;7.232;2022-11-25T05:16:52;9.10;9.00
20174;DHT22;10246;50.620;7.232;2022-11-25T05:19:20;9.10;9.00
20174;DHT22;10246;50.620;7.232;2022-11-25T05:21:47;9.20;8.80
20174;DHT22;10246;50.620;7.232;2022-11-25T05:24:14;9.20;8.90
20174;DHT22;10246;50.620;7.232;2022-11-25T05:26:40;9.20;8.60
20174;DHT22;10246;50.620;7.232;2022-11-25T05:29:08;9.20;8.60
20174;DHT22;10246;50.620;7.232;2022-11-25T05:31:35;9.20;8.50
20174;DHT22;10246;50.620;7.232;2022-11-25T05:34:02;9.20;8.90
20174;DHT22;10246;50.620;7.232;2022-11-25T05:36:30;9.30;8.40
20174;DHT22;10246;50.620;7.232;2022-11-25T05:38:58;9.30;8.20
20174;DHT22;10246;50.620;7.232;2022-11-25T05:41:25;9.30;8.20
20174;DHT22;10246;50.620;7.232;2022-11-25T05:43:52;9.30;8.00
20174;DHT22;10246;50.620;7.232;2022-11-25T05:46:19;9.40;7.80
20174;DHT22;10246;50.620;7.232;2022-11-25T05:48:46;9.50;7.50
20174;DHT22;10246;50.620;7.232;2022-11-25T05:51:12;9.50;7.50
20174;DHT22;10246;50.620;7.232;2022-11-25T05:53:40;9.40;7.70
20174;DHT22;10246;50.620;7.232;2022-11-25T05:56:09;9.50;7.70
20174;DHT22;10246;50.620;7.232;2022-11-25T05:58:36;9.50;7.50
20174;DHT22;10246;50.620;7.232;2022-11-25T06:01:05;9.50;7.80
20174;DHT22;10246;50.620;7.232;2022-11-25T06:03:32;9.50;8.30
20174;DHT22;10246;50.620;7.232;2022-11-25T06:05:59;9.50;9.30
20174;DHT22;10246;50.620;7.232;2022-11-25T06:08:26;9.50;9.90
20174;DHT22;10246;50.620;7.232;2022-11-25T06:10:54;9.50;10.20
20174;DHT22;10246;50.620;7.232;2022-11-25T06:13:23;9.50;11.10
20174;DHT22;10246;50.620;7.232;2022-11-25T06:15:49;9.50;11.30
20174;DHT22;10246;50.620;7.232;2022-11-25T06:18:16;9.40;11.90
20174;DHT22;10246;50.620;7.232;2022-11-25T06:20:44;9.40;12.70
20174;DHT22;10246;50.620;7.232;2022-11-25T06:23:10;9.40;12.70
20174;DHT22;10246;50.620;7.232;2022-11-25T06:25:37;9.40;12.70
20174;DHT22;10246;50.620;7.232;2022-11-25T06:28:05;9.30;12.60
20174;DHT22;10246;50.620;7.232;2022-11-25T06:30:32;9.30;13.30
20174;DHT22;10246;50.620;7.232;2022-11-25T06:32:59;9.30;13.30
20174;DHT22;10246;50.620;7.232;2022-11-25T06:35:26;9.30;13.60
20174;DHT22;10246;50.620;7.232;2022-11-25T06:37:52;9.30;14.20
20174;DHT22;10246;50.620;7.232;2022-11-25T06:40:19;9.30;14.70
20174;DHT22;10246;50.620;7.232;2022-11-25T06:42:46;9.30;14.80
20174;DHT22;10246;50.620;7.232;2022-11-25T06:45:14;9.20;15.10
20174;DHT22;10246;50.620;7.232;2022-11-25T06:47:41;9.20;15.60
20174;DHT22;10246;50.620;7.232;2022-11-25T06:50:08;9.30;15.80
20174;DHT22;10246;50.620;7.232;2022-11-25T06:52:35;9.20;16.10
20174;DHT22;10246;50.620;7.232;2022-11-25T06:55:02;9.20;16.50
20174;DHT22;10246;50.620;7.232;2022-11-25T06:57:29;9.20;16.80
20174;DHT22;10246;50.620;7.232;2022-11-25T06:59:56;9.10;16.80
20174;DHT22;10246;50.620;7.232;2022-11-25T07:02:24;9.20;17.30
20174;DHT22;10246;50.620;7.232;2022-11-25T07:04:50;9.20;17.50
20174;DHT22;10246;50.620;7.232;2022-11-25T07:07:18;9.20;18.00
20174;DHT22;10246;50.620;7.232;2022-11-25T07:09:45;9.10;18.20
20174;DHT22;10246;50.620;7.232;2022-11-25T07:12:12;9.00;18.50
20174;DHT22;10246;50.620;7.232;2022-11-25T07:14:39;8.90;19.20
20174;DHT22;10246;50.620;7.232;2022-11-25T07:17:06;8.90;19.90
20174;DHT22;10246;50.620;7.232;2022-11-25T07:19:34;8.90;20.10
20174;DHT22;10246;50.620;7.232;2022-11-25T07:22:01;8.90;20.60
20174;DHT22;10246;50.620;7.232;2022-11-25T07:24:28;8.90;20.80
20174;DHT22;10246;50.620;7.232;2022-11-25T07:26:55;8.90;20.80
20174;DHT22;10246;50.620;7.232;2022-11-25T07:29:21;8.80;20.80
20174;DHT22;10246;50.620;7.232;2022-11-25T07:31:49;8.80;20.90
20174;DHT22;10246;50.620;7.232;2022-11-25T07:34:18;8.80;21.40
20174;DHT22;10246;50.620;7.232;2022-11-25T07:36:47;8.90;21.70
20174;DHT22;10246;50.620;7.232;2022-11-25T07:39:16;8.90;21.50
20174;DHT22;10246;50.620;7.232;2022-11-25T07:41:43;8.80;21.40
20174;DHT22;10246;50.620;7.232;2022-11-25T07:44:12;8.80;21.60
20174;DHT22;10246;50.620;7.232;2022-11-25T07:46:41;8.80;21.80
20174;DHT22;10246;50.620;7.232;2022-11-25T07:49:11;8.80;22.00
20174;DHT22;10246;50.620;7.232;2022-11-25T07:51:40;8.80;21.80
20174;DHT22;10246;50.620;7.232;2022-11-25T07:54:11;8.80;21.60
20174;DHT22;10246;50.620;7.232;2022-11-25T07:56:39;8.80;21.80
20174;DHT22;10246;50.620;7.232;2022-11-25T07:59:09;8.70;21.70
20174;DHT22;10246;50.620;7.232;2022-11-25T08:01:37;8.70;21.70
20174;DHT22;10246;50.620;7.232;2022-11-25T08:04:06;8.70;21.70
20174;DHT22;10246;50.620;7.232;2022-11-25T08:06:38;8.70;21.80
20174;DHT22;10246;50.620;7.232;2022-11-25T08:09:09;8.70;21.70
20174;DHT22;10246;50.620;7.232;2022-11-25T08:11:36;8.70;21.50
20174;DHT22;10246;50.620;7.232;2022-11-25T08:14:03;8.70;21.30
20174;DHT22;10246;50.620;7.232;2022-11-25T08:16:30;8.70;21.50
20174;DHT22;10246;50.620;7.232;2022-11-25T08:18:59;8.70;21.10
20174;DHT22;10246;50.620;7.232;2022-11-25T08:21:26;8.70;21.70
20174;DHT22;10246;50.620;7.232;2022-11-25T08:23:53;8.80;21.20
20174;DHT22;10246;50.620;7.232;2022-11-25T08:26:23;8.80;21.40
20174;DHT22;10246;50.620;7.232;2022-11-25T08:28:50;8.90;21.40
20174;DHT22;10246;50.620;7.232;2022-11-25T08:31:19;8.80;21.60
20174;DHT22;10246;50.620;7.232;2022-11-25T08:33:47;8.90;21.50
20174;DHT22;10246;50.620;7.232;2022-11-25T08:36:14;8.80;21.60
20174;DHT22;10246;50.620;7.232;2022-11-25T08:38:42;8.90;21.70
20174;DHT22;10246;50.620;7.232;2022-11-25T08:41:10;8.90;21.70
20174;DHT22;10246;50.620;7.232;2022-11-25T08:43:38;8.80;21.70
20174;DHT22;10246;50.620;7.232;2022-11-25T08:46:09;8.80;22.00
20174;DHT22;10246;50.620;7.232;2022-11-25T08:48:37;8.90;22.00
20174;DHT22;10246;50.620;7.232;2022-11-25T08:51:07;8.90;21.90
20174;DHT22;10246;50.620;7.232;2022-11-25T08:53:35;8.90;22.50
20174;DHT22;10246;50.620;7.232;2022-11-25T08:56:02;8.90;21.80
20174;DHT22;10246;50.620;7.232;2022-11-25T08:58:28;8.90;21.80
20174;DHT22;10246;50.620;7.232;2022-11-25T09:00:57;8.90;21.90
20174;DHT22;10246;50.620;7.232;2022-11-25T09:03:23;9.00;22.20
20174;DHT22;10246;50.620;7.232;2022-11-25T09:05:51;9.00;21.90
20174;DHT22;10246;50.620;7.232;2022-11-25T09:08:19;9.00;21.90
20174;DHT22;10246;50.620;7.232;2022-11-25T09:10:46;9.10;22.90
20174;DHT22;10246;50.620;7.232;2022-11-25T09:13:12;9.10;22.10
20174;DHT22;10246;50.620;7.232;2022-11-25T09:15:39;9.20;22.70
20174;DHT22;10246;50.620;7.232;2022-11-25T09:18:09;9.30;22.90
20174;DHT22;10246;50.620;7.232;2022-11-25T09:20:37;9.40;22.20
20174;DHT22;10246;50.620;7.232;2022-11-25T09:23:05;9.40;21.40
20174;DHT22;10246;50.620;7.232;2022-11-25T09:25:33;9.40;21.60
20174;DHT22;10246;50.620;7.232;2022-11-25T09:28:01;9.40;21.60
20174;DHT22;10246;50.620;7.232;2022-11-25T09:30:28;9.40;21.40
20174;DHT22;10246;50.620;7.232;2022-11-25T09:32:55;9.50;21.40
20174;DHT22;10246;50.620;7.232;2022-11-25T09:35:24;9.50;21.10
20174;DHT22;10246;50.620;7.232;2022-11-25T09:37:51;9.60;21.60
20174;DHT22;10246;50.620;7.232;2022-11-25T09:40:20;9.70;21.50
20174;DHT22;10246;50.620;7.232;2022-11-25T09:42:53;9.80;22.60
20174;DHT22;10246;50.620;7.232;2022-11-25T09:45:45;9.90;22.10
20174;DHT22;10246;50.620;7.232;2022-11-25T09:48:47;10.10;20.90
20174;DHT22;10246;50.620;7.232;2022-11-25T09:51:22;10.20;20.20
20174;DHT22;10246;50.620;7.232;2022-11-25T09:53:52;10.20;19.80
20174;DHT22;10246;50.620;7.232;2022-11-25T09:56:27;10.30;19.90
20174;DHT22;10246;50.620;7.232;2022-11-25T09:58:58;10.40;19.60
20174;DHT22;10246;50.620;7.232;2022-11-25T10:01:29;10.60;19.20
20174;DHT22;10246;50.620;7.232;2022-11-25T10:04:01;10.60;19.10
20174;DHT22;10246;50.620;7.232;2022-11-25T10:06:33;10.60;19.10
20174;DHT22;10246;50.620;7.232;2022-11-25T10:09:05;10.60;18.70
20174;DHT22;10246;50.620;7.232;2022-11-25T10:11:45;10.80;17.70
20174;DHT22;10246;50.620;7.232;2022-11-25T10:14:20;10.80;18.10
20174;DHT22;10246;50.620;7.232;2022-11-25T10:16:51;11.00;18.20
20174;DHT22;10246;50.620;7.232;2022-11-25T10:19:25;11.10;17.30
20174;DHT22;10246;50.620;7.232;2022-11-25T10:21:58;11.10;16.30
20174;DHT22;10246;50.620;7.232;2022-11-25T10:24:25;11.10;16.70
20174;DHT22;10246;50.620;7.232;2022-11-25T10:26:57;11.30;16.80
20174;DHT22;10246;50.620;7.232;2022-11-25T10:29:27;11.30;16.70
20174;DHT22;10246;50.620;7.232;2022-11-25T10:32:00;11.40;16.70
20174;DHT22;10246;50.620;7.232;2022-11-25T10:34:35;11.40;16.40
20174;DHT22;10246;50.620;7.232;2022-11-25T10:37:11;11.60;13.40
20174;DHT22;10246;50.620;7.232;2022-11-25T10:39:39;11.60;12.80
20174;DHT22;10246;50.620;7.232;2022-11-25T10:42:13;11.70;12.00
20174;DHT22;10246;50.620;7.232;2022-11-25T10:44:41;11.80;10.10
20174;DHT22;10246;50.620;7.232;2022-11-25T10:47:18;11.90;10.70
20174;DHT22;10246;50.620;7.232;2022-11-25T10:50:02;11.90;9.90
20174;DHT22;10246;50.620;7.232;2022-11-25T10:52:35;11.90;9.60
20174;DHT22;10246;50.620;7.232;2022-11-25T10:55:09;12.00;11.90
20174;DHT22;10246;50.620;7.232;2022-11-25T10:57:36;12.00;8.40
20174;DHT22;10246;50.620;7.232;2022-11-25T11:00:05;12.10;8.60
20174;DHT22;10246;50.620;7.232;2022-11-25T11:02:37;12.20;8.70
20174;DHT22;10246;50.620;7.232;2022-11-25T11:05:17;12.30;7.00
20174;DHT22;10246;50.620;7.232;2022-11-25T11:07:46;12.30;7.80
20174;DHT22;10246;50.620;7.232;2022-11-25T11:10:17;12.40;4.70
20174;DHT22;10246;50.620;7.232;2022-11-25T11:12:55;12.40;7.50
20174;DHT22;10246;50.620;7.232;2022-11-25T11:15:24;12.40;6.60
20174;DHT22;10246;50.620;7.232;2022-11-25T11:17:51;12.50;4.50
20174;DHT22;10246;50.620;7.232;2022-11-25T11:20:21;12.60;4.50
20174;DHT22;10246;50.620;7.232;2022-11-25T11:22:55;12.70;3.60
20174;DHT22;10246;50.620;7.232;2022-11-25T11:25:28;12.60;4.00
20174;DHT22;10246;50.620;7.232;2022-11-25T11:27:56;12.70;3.50
20174;DHT22;10246;50.620;7.232;2022-11-25T11:30:25;12.70;1.80
20174;DHT22;10246;50.620;7.232;2022-11-25T11:33:00;12.70;1.90
20174;DHT22;10246;50.620;7.232;2022-11-25T11:35:40;12.70;1.00
20174;DHT22;10246;50.620;7.232;2022-11-25T11:38:23;12.70;1.00
20174;DHT22;10246;50.620;7.232;2022-11-25T11:41:07;12.80;1.00
20174;DHT22;10246;50.620;7.232;2022-11-25T11:43:47;12.80;1.00
20174;DHT22;10246;50.620;7.232;2022-11-25T11:46:29;12.90;1.00
20174;DHT22;10246;50.620;7.232;2022-11-25T11:49:08;12.90;1.00
20174;DHT22;10246;50.620;7.232;2022-11-25T11:51:45;12.80;1.00
20174;DHT22;10246;50.620;7.232;2022-11-25T11:54:17;12.80;1.00
20174;DHT22;10246;50.620;7.232;2022-11-25T11:56:50;12.80;1.00
20174;DHT22;10246;50.620;7.232;2022-11-25T11:59:33;12.70;1.00
20174;DHT22;10246;50.620;7.232;2022-11-25T12:02:19;12.70;1.00
20174;DHT22;10246;50.620;7.232;2022-11-25T12:04:53;12.70;1.00
20174;DHT22;10246;50.620;7.232;2022-11-25T12:07:29;12.70;1.00
20174;DHT22;10246;50.620;7.232;2022-11-25T12:10:03;12.60;1.00
20174;DHT22;10246;50.620;7.232;2022-11-25T12:12:35;12.60;1.00
20174;DHT22;10246;50.620;7.232;2022-11-25T12:15:08;12.60;1.00
20174;DHT22;10246;50.620;7.232;2022-11-25T12:17:43;12.60;1.00
20174;DHT22;10246;50.620;7.232;2022-11-25T12:20:16;12.60;1.00
20174;DHT22;10246;50.620;7.232;2022-11-25T12:22:49;12.50;1.00
20174;DHT22;10246;50.620;7.232;2022-11-25T12:25:22;12.50;1.00
20174;DHT22;10246;50.620;7.232;2022-11-25T12:27:53;12.50;1.00
20174;DHT22;10246;50.620;7.232;2022-11-25T12:30:28;12.50;1.00
20174;DHT22;10246;50.620;7.232;2022-11-25T12:33:03;12.70;1.00
20174;DHT22;10246;50.620;7.232;2022-11-25T12:35:44;12.80;1.00
20174;DHT22;10246;50.620;7.232;2022-11-25T12:38:20;12.90;1.00
20174;DHT22;10246;50.620;7.232;2022-11-25T12:40:58;13.00;1.00
20174;DHT22;10246;50.620;7.232;2022-11-25T12:43:33;13.00;1.00
20174;DHT22;10246;50.620;7.232;2022-11-25T12:46:12;13.00;1.00
20174;DHT22;10246;50.620;7.232;2022-11-25T12:48:41;13.00;1.00
20174;DHT22;10246;50.620;7.232;2022-11-25T12:51:21;13.00;1.00
20174;DHT22;10246;50.620;7.232;2022-11-25T12:53:58;13.00;1.00
20174;DHT22;10246;50.620;7.232;2022-11-25T12:56:43;12.90;1.00
20174;DHT22;10246;50.620;7.232;2022-11-25T12:59:40;13.00;1.00
20174;DHT22;10246;50.620;7.232;2022-11-25T13:02:29;13.10;1.00
20174;DHT22;10246;50.620;7.232;2022-11-25T13:05:17;13.00;1.00
20174;DHT22;10246;50.620;7.232;2022-11-25T13:07:56;13.00;1.00
20174;DHT22;10246;50.620;7.232;2022-11-25T13:10:39;13.00;1.00
20174;DHT22;10246;50.620;7.232;2022-11-25T13:13:35;13.10;1.00
20174;DHT22;10246;50.620;7.232;2022-11-25T13:16:07;13.10;1.00
20174;DHT22;10246;50.620;7.232;2022-11-25T13:18:38;13.10;1.00
20174;DHT22;10246;50.620;7.232;2022-11-25T13:21:06;13.10;1.00
20174;DHT22;10246;50.620;7.232;2022-11-25T13:23:46;13.10;1.00
20174;DHT22;10246;50.620;7.232;2022-11-25T13:26:47;13.10;1.00
20174;DHT22;10246;50.620;7.232;2022-11-25T13:32:39;13.10;1.00
20174;DHT22;10246;50.620;7.232;2022-11-25T13:35:37;13.10;1.00
20174;DHT22;10246;50.620;7.232;2022-11-25T13:41:30;13.10;1.00
20174;DHT22;10246;50.620;7.232;2022-11-25T13:44:03;13.00;1.00
20174;DHT22;10246;50.620;7.232;2022-11-25T13:46:37;13.00;1.00
20174;DHT22;10246;50.620;7.232;2022-11-25T13:49:20;13.00;1.00
20174;DHT22;10246;50.620;7.232;2022-11-25T13:51:51;13.00;1.00
20174;DHT22;10246;50.620;7.232;2022-11-25T13:54:20;13.00;1.00
20174;DHT22;10246;50.620;7.232;2022-11-25T13:57:17;13.00;1.00
20174;DHT22;10246;50.620;7.232;2022-11-25T13:59:51;13.00;1.00
20174;DHT22;10246;50.620;7.232;2022-11-25T14:02:34;13.00;1.00
20174;DHT22;10246;50.620;7.232;2022-11-25T14:08:28;13.00;1.00
20174;DHT22;10246;50.620;7.232;2022-11-25T14:11:14;13.00;1.00
20174;DHT22;10246;50.620;7.232;2022-11-25T14:14:00;13.00;1.00
20174;DHT22;10246;50.620;7.232;2022-11-25T14:16:40;13.00;1.00
20174;DHT22;10246;50.620;7.232;2022-11-25T14:19:45;13.00;1.00
20174;DHT22;10246;50.620;7.232;2022-11-25T14:25:21;13.00;1.00
20174;DHT22;10246;50.620;7.232;2022-11-25T14:27:56;13.00;1.00
20174;DHT22;10246;50.620;7.232;2022-11-25T14:30:25;13.00;1.00
20174;DHT22;10246;50.620;7.232;2022-11-25T14:32:55;13.00;1.00
20174;DHT22;10246;50.620;7.232;2022-11-25T14:35:27;13.00;1.00
20174;DHT22;10246;50.620;7.232;2022-11-25T14:37:58;12.90;1.00
20174;DHT22;10246;50.620;7.232;2022-11-25T14:40:30;12.90;1.00
20174;DHT22;10246;50.620;7.232;2022-11-25T14:43:03;12.90;1.00
20174;DHT22;10246;50.620;7.232;2022-11-25T14:45:33;12.90;1.00
20174;DHT22;10246;50.620;7.232;2022-11-25T14:48:12;12.90;1.00
20174;DHT22;10246;50.620;7.232;2022-11-25T14:50:39;12.90;1.00
20174;DHT22;10246;50.620;7.232;2022-11-25T14:53:07;12.90;1.00
20174;DHT22;10246;50.620;7.232;2022-11-25T14:55:36;12.80;1.00
20174;DHT22;10246;50.620;7.232;2022-11-25T14:58:03;12.80;1.00
20174;DHT22;10246;50.620;7.232;2022-11-25T15:00:30;12.70;1.00
20174;DHT22;10246;50.620;7.232;2022-11-25T15:02:58;12.60;1.00
20174;DHT22;10246;50.620;7.232;2022-11-25T15:05:30;12.50;1.00
20174;DHT22;10246;50.620;7.232;2022-11-25T15:08:00;12.50;1.00
20174;DHT22;10246;50.620;7.232;2022-11-25T15:10:29;12.40;1.00
20174;DHT22;10246;50.620;7.232;2022-11-25T15:12:57;12.30;1.00
20174;DHT22;10246;50.620;7.232;2022-11-25T15:15:25;12.30;1.00
20174;DHT22;10246;50.620;7.232;2022-11-25T15:17:54;12.20;1.00
20174;DHT22;10246;50.620;7.232;2022-11-25T15:20:22;12.20;1.00
20174;DHT22;10246;50.620;7.232;2022-11-25T15:22:51;12.10;1.30
20174;DHT22;10246;50.620;7.232;2022-11-25T15:25:18;12.00;2.10
20174;DHT22;10246;50.620;7.232;2022-11-25T15:27:48;11.90;2.70
20174;DHT22;10246;50.620;7.232;2022-11-25T15:30:22;11.80;3.60
20174;DHT22;10246;50.620;7.232;2022-11-25T15:32:50;11.80;3.90
20174;DHT22;10246;50.620;7.232;2022-11-25T15:35:19;11.70;4.20
20174;DHT22;10246;50.620;7.232;2022-11-25T15:37:47;11.60;5.10
20174;DHT22;10246;50.620;7.232;2022-11-25T15:40:34;11.60;4.90
20174;DHT22;10246;50.620;7.232;2022-11-25T15:43:04;11.60;4.10
20174;DHT22;10246;50.620;7.232;2022-11-25T15:45:41;11.60;5.00
20174;DHT22;10246;50.620;7.232;2022-11-25T15:48:14;11.50;5.40
20174;DHT22;10246;50.620;7.232;2022-11-25T15:50:42;11.50;5.30
20174;DHT22;10246;50.620;7.232;2022-11-25T15:53:19;11.40;6.10
20174;DHT22;10246;50.620;7.232;2022-11-25T15:55:48;11.30;5.90
20174;DHT22;10246;50.620;7.232;2022-11-25T15:58:17;11.30;6.20
20174;DHT22;10246;50.620;7.232;2022-11-25T16:01:03;11.20;6.00
20174;DHT22;10246;50.620;7.232;2022-11-25T16:03:32;11.30;6.20
20174;DHT22;10246;50.620;7.232;2022-11-25T16:06:00;11.30;6.40
20174;DHT22;10246;50.620;7.232;2022-11-25T16:08:32;11.30;6.80
20174;DHT22;10246;50.620;7.232;2022-11-25T16:11:10;11.20;7.10
20174;DHT22;10246;50.620;7.232;2022-11-25T16:13:40;11.20;7.10
20174;DHT22;10246;50.620;7.232;2022-11-25T16:16:20;11.10;7.10
20174;DHT22;10246;50.620;7.232;2022-11-25T16:19:16;11.10;6.90
20174;DHT22;10246;50.620;7.232;2022-11-25T16:21:53;11.10;7.00